Terminal Aerodrome Forecast
Issued by NWS

Home | Current Version | Previous Version | Text Only | Print | Product List | Glossary On
Versions: 1 2 3 4 5 6 7 8 9 10 11 12 13 14 15 16 17 18 19 20 21 22 23 24 25 26
000
FTUS43 KDLH 210134 AAB
TAFBRD
TAF AMD
KBRD 210134Z 2102/2124 27015KT 5SM -SHRA BR OVC006
     FM210400 28009KT 2SM BR SCT002 OVC006
     FM210800 26004KT 3/4SM BR SCT002 OVC004
     FM211100 22004KT 1/2SM FG OVC002
     FM211400 19006KT 2SM BR SCT002 OVC006
     FM211600 20009KT P6SM SCT200=

USA.gov is the U.S. government's official web portal to all federal, state and local government web resources and services.